createdAt,value
2022-12-12T00:01:33.423Z,34.83
2022-12-12T00:04:01.541Z,34.90
2022-12-12T00:06:29.353Z,28.67
2022-12-12T00:08:56.862Z,28.80
2022-12-12T00:11:25.510Z,26.93
2022-12-12T00:13:54.537Z,30.73
2022-12-12T00:16:22.836Z,27.70
2022-12-12T00:18:50.283Z,33.10
2022-12-12T00:21:24.220Z,28.00
2022-12-12T00:23:51.676Z,31.43
2022-12-12T00:26:22.680Z,29.43
2022-12-12T00:28:50.199Z,29.10
2022-12-12T00:31:17.975Z,33.90
2022-12-12T00:33:46.726Z,33.07
2022-12-12T00:36:14.700Z,30.47
2022-12-12T00:38:41.776Z,29.50
2022-12-12T00:41:09.341Z,30.03
2022-12-12T00:43:36.517Z,27.87
2022-12-12T00:46:04.249Z,26.40
2022-12-12T00:48:31.466Z,28.43
2022-12-12T00:50:58.934Z,33.50
2022-12-12T00:53:26.018Z,27.80
2022-12-12T00:55:58.112Z,32.83
2022-12-12T00:58:26.216Z,30.33
2022-12-12T01:00:54.496Z,33.57
2022-12-12T01:03:22.354Z,31.70
2022-12-12T01:05:49.598Z,30.97
2022-12-12T01:08:16.719Z,27.23
2022-12-12T01:10:43.901Z,31.97
2022-12-12T01:13:11.089Z,31.37
2022-12-12T01:15:38.201Z,29.67
2022-12-12T01:18:05.298Z,30.73
2022-12-12T01:20:32.461Z,33.37
2022-12-12T01:22:59.759Z,33.37
2022-12-12T01:25:26.882Z,30.60
2022-12-12T01:27:53.988Z,29.70
2022-12-12T01:30:23.043Z,30.63
2022-12-12T01:32:50.554Z,28.23
2022-12-12T01:35:18.166Z,33.10
2022-12-12T01:37:45.633Z,31.50
2022-12-12T01:40:25.410Z,34.30
2022-12-12T01:42:53.217Z,35.00
2022-12-12T01:46:00.067Z,30.47
2022-12-12T01:48:33.550Z,32.23
2022-12-12T01:51:05.437Z,36.57
2022-12-12T01:53:33.793Z,34.40
2022-12-12T01:56:07.983Z,29.60
2022-12-12T01:58:35.382Z,31.10
2022-12-12T02:01:02.581Z,28.40
2022-12-12T02:03:29.785Z,32.57
2022-12-12T02:06:03.259Z,33.60
2022-12-12T02:08:30.847Z,40.73
2022-12-12T02:10:58.459Z,32.43
2022-12-12T02:13:29.596Z,28.63
2022-12-12T02:16:18.146Z,32.70
2022-12-12T02:19:05.577Z,31.90
2022-12-12T02:21:53.851Z,38.73
2022-12-12T02:24:35.091Z,35.23
2022-12-12T02:27:29.307Z,40.23
2022-12-12T02:30:09.887Z,37.97
2022-12-12T02:33:21.444Z,31.20
2022-12-12T02:36:20.558Z,33.60
2022-12-12T02:39:18.322Z,38.23
2022-12-12T02:41:59.787Z,31.00
2022-12-12T02:44:54.320Z,38.53
2022-12-12T02:47:30.000Z,36.43
2022-12-12T02:50:17.140Z,40.77
2022-12-12T02:52:46.796Z,46.30
2022-12-12T02:55:15.611Z,36.70
2022-12-12T02:57:43.037Z,43.17
2022-12-12T03:00:16.896Z,42.07
2022-12-12T03:03:33.403Z,34.77
2022-12-12T03:06:27.027Z,40.47
2022-12-12T03:09:21.204Z,40.47
2022-12-12T03:12:15.711Z,46.47
2022-12-12T03:14:53.573Z,38.43
2022-12-12T03:18:01.706Z,35.23
2022-12-12T03:20:42.739Z,38.50
2022-12-12T03:23:16.071Z,37.90
2022-12-12T03:26:14.134Z,42.20
2022-12-12T03:29:08.706Z,36.83
2022-12-12T03:31:40.914Z,37.93
2022-12-12T03:34:17.593Z,33.47
2022-12-12T03:37:01.701Z,34.60
2022-12-12T03:39:44.108Z,36.83
2022-12-12T03:42:41.913Z,35.80
2022-12-12T03:45:15.133Z,33.77
2022-12-12T03:47:54.196Z,36.83
2022-12-12T03:50:25.769Z,36.00
2022-12-12T03:53:02.914Z,35.20
2022-12-12T03:55:42.131Z,36.73
2022-12-12T03:58:24.060Z,38.60
2022-12-12T04:00:53.584Z,30.53
2022-12-12T04:03:38.078Z,34.53
2022-12-12T04:06:31.373Z,35.93
2022-12-12T04:09:22.813Z,28.97
2022-12-12T04:12:59.081Z,34.87
2022-12-12T04:15:47.738Z,31.33
2022-12-12T04:18:36.592Z,31.80
2022-12-12T04:21:34.479Z,33.50
2022-12-12T04:24:16.575Z,32.00
2022-12-12T04:26:51.536Z,36.00
2022-12-12T04:29:45.893Z,32.33
2022-12-12T04:32:25.892Z,32.87
2022-12-12T04:35:12.567Z,32.77
2022-12-12T04:37:55.167Z,40.03
2022-12-12T04:40:41.189Z,32.07
2022-12-12T04:43:13.832Z,35.00
2022-12-12T04:46:01.702Z,27.90
2022-12-12T04:48:38.664Z,27.10
2022-12-12T04:51:08.479Z,29.50
2022-12-12T04:53:44.061Z,37.87
2022-12-12T04:56:17.899Z,28.13
2022-12-12T04:58:46.301Z,35.27
2022-12-12T05:01:30.970Z,34.23
2022-12-12T05:04:02.462Z,31.60
2022-12-12T05:06:43.877Z,29.50
2022-12-12T05:09:11.872Z,30.00
2022-12-12T05:11:39.087Z,33.17
2022-12-12T05:14:09.742Z,35.23
2022-12-12T05:16:47.279Z,34.73
2022-12-12T05:19:14.588Z,28.37
2022-12-12T05:21:41.672Z,35.63
2022-12-12T05:24:08.913Z,31.53
2022-12-12T05:26:37.205Z,30.17
2022-12-12T05:29:07.777Z,31.40
2022-12-12T05:31:35.471Z,31.30
2022-12-12T05:34:03.604Z,33.10
2022-12-12T05:36:30.939Z,29.30
2022-12-12T05:38:58.035Z,32.30
2022-12-12T05:41:25.272Z,37.33
2022-12-12T05:43:52.413Z,25.00
2022-12-12T05:46:19.624Z,34.50
2022-12-12T05:48:50.612Z,24.33
2022-12-12T05:51:19.064Z,31.07
2022-12-12T05:53:47.400Z,30.67
2022-12-12T05:56:14.678Z,36.77
2022-12-12T05:58:42.731Z,34.60
2022-12-12T06:01:10.517Z,32.50
2022-12-12T06:03:37.904Z,35.63
2022-12-12T06:06:05.333Z,31.40
2022-12-12T06:08:32.596Z,29.97
2022-12-12T06:10:59.893Z,34.90
2022-12-12T06:13:27.011Z,35.33
2022-12-12T06:15:54.255Z,35.40
2022-12-12T06:18:21.536Z,37.67
2022-12-12T06:20:48.754Z,29.30
2022-12-12T06:23:15.895Z,43.20
2022-12-12T06:25:43.040Z,38.03
2022-12-12T06:28:10.414Z,39.20
2022-12-12T06:30:37.636Z,35.17
2022-12-12T06:33:04.898Z,37.80
2022-12-12T06:35:32.018Z,36.87
2022-12-12T06:37:59.118Z,34.63
2022-12-12T06:40:26.150Z,34.93
2022-12-12T06:42:53.210Z,33.60
2022-12-12T06:45:20.300Z,33.93
2022-12-12T06:47:47.419Z,28.50
2022-12-12T06:50:17.873Z,32.73
2022-12-12T06:52:49.063Z,31.73
2022-12-12T06:55:16.236Z,29.87
2022-12-12T06:57:43.402Z,29.30
2022-12-12T07:00:11.095Z,35.77
2022-12-12T07:02:38.189Z,33.37
2022-12-12T07:05:05.882Z,30.00
2022-12-12T07:07:32.939Z,32.10
2022-12-12T07:10:00.474Z,28.83
2022-12-12T07:12:27.526Z,34.20
2022-12-12T07:14:54.592Z,35.23
2022-12-12T07:17:21.662Z,35.47
2022-12-12T07:19:48.885Z,28.07
2022-12-12T07:22:16.010Z,34.40
2022-12-12T07:24:43.113Z,27.43
2022-12-12T07:27:10.856Z,28.10
2022-12-12T07:29:38.014Z,30.00
2022-12-12T07:32:05.314Z,31.70
2022-12-12T07:34:32.629Z,30.50
2022-12-12T07:37:03.160Z,29.30
2022-12-12T07:39:32.764Z,27.43
2022-12-12T07:42:00.452Z,30.23
2022-12-12T07:44:27.668Z,29.67
2022-12-12T07:46:58.016Z,25.77
2022-12-12T07:49:25.699Z,30.60
2022-12-12T07:51:52.913Z,31.90
2022-12-12T07:54:20.090Z,26.93
2022-12-12T07:56:47.540Z,36.80
2022-12-12T07:59:14.836Z,28.40
2022-12-12T08:01:42.179Z,24.97
2022-12-12T08:04:09.254Z,24.57
2022-12-12T08:06:36.426Z,28.87
2022-12-12T08:09:03.851Z,26.40
2022-12-12T08:11:30.942Z,28.67
2022-12-12T08:13:58.296Z,25.93
2022-12-12T08:16:28.550Z,23.20
2022-12-12T08:18:58.231Z,24.33
2022-12-12T08:21:26.896Z,23.90
2022-12-12T08:23:58.757Z,29.73
2022-12-12T08:26:27.303Z,22.30
2022-12-12T08:28:55.476Z,21.80
2022-12-12T08:31:23.326Z,24.03
2022-12-12T08:33:51.187Z,20.87
2022-12-12T08:36:22.334Z,24.60
2022-12-12T08:38:50.361Z,25.83
2022-12-12T08:41:18.991Z,26.90
2022-12-12T08:43:46.446Z,24.90
2022-12-12T08:46:17.915Z,23.50
2022-12-12T08:48:47.136Z,21.43
2022-12-12T08:51:15.714Z,24.50
2022-12-12T08:53:50.976Z,21.50
2022-12-12T08:56:19.964Z,22.40
2022-12-12T08:58:47.322Z,22.47
2022-12-12T09:01:18.506Z,26.93
2022-12-12T09:03:46.358Z,19.57
2022-12-12T09:06:14.334Z,23.80
2022-12-12T09:08:42.659Z,25.40
2022-12-12T09:11:10.853Z,21.07
2022-12-12T09:13:38.877Z,27.03
2022-12-12T09:16:08.241Z,22.93
2022-12-12T09:18:36.681Z,19.13
2022-12-12T09:21:05.543Z,19.70
2022-12-12T09:23:33.716Z,20.17
2022-12-12T09:26:06.489Z,20.30
2022-12-12T09:28:34.792Z,19.27
2022-12-12T09:31:06.406Z,18.40
2022-12-12T09:33:35.336Z,21.50
2022-12-12T09:36:06.197Z,20.37
2022-12-12T09:38:34.610Z,17.87
2022-12-12T09:41:27.020Z,42.03
2022-12-12T09:44:10.044Z,20.83
2022-12-12T09:46:44.729Z,21.27
2022-12-12T09:49:19.283Z,23.07
2022-12-12T09:51:50.214Z,21.23
2022-12-12T09:54:21.981Z,20.90
2022-12-12T09:57:24.879Z,23.77
2022-12-12T10:00:09.605Z,31.30
2022-12-12T10:03:23.493Z,20.07
2022-12-12T10:06:35.805Z,24.17
2022-12-12T10:09:24.489Z,18.77
2022-12-12T10:11:55.206Z,24.53
2022-12-12T10:14:53.126Z,22.93
2022-12-12T10:17:29.040Z,18.30
2022-12-12T10:20:25.957Z,28.87
2022-12-12T10:23:25.591Z,24.70
2022-12-12T10:26:02.134Z,25.10
2022-12-12T10:28:32.258Z,22.43
2022-12-12T10:31:24.198Z,24.27
2022-12-12T10:34:28.023Z,16.83
2022-12-12T10:37:35.927Z,22.10
2022-12-12T10:40:38.172Z,22.30
2022-12-12T10:43:24.510Z,22.83
2022-12-12T10:46:11.241Z,26.77
2022-12-12T10:48:40.259Z,21.47
2022-12-12T10:51:12.722Z,24.90
2022-12-12T10:53:44.490Z,18.97
2022-12-12T10:56:25.165Z,22.97
2022-12-12T10:59:01.541Z,22.03
2022-12-12T11:02:08.309Z,21.80
2022-12-12T11:04:24.700Z,27.23
2022-12-12T11:06:58.324Z,25.97
2022-12-12T11:09:28.570Z,19.80
2022-12-12T11:12:09.971Z,28.90
2022-12-12T11:14:48.707Z,24.90
2022-12-12T11:17:31.387Z,21.13
2022-12-12T11:20:01.820Z,20.87
2022-12-12T11:22:32.535Z,24.60
2022-12-12T11:25:00.618Z,24.37
2022-12-12T11:27:35.207Z,21.50
2022-12-12T11:30:34.971Z,26.80
2022-12-12T11:33:06.006Z,25.77
2022-12-12T11:35:45.604Z,31.87
2022-12-12T11:38:22.829Z,21.93
2022-12-12T11:41:06.448Z,26.77
2022-12-12T11:43:48.532Z,25.53
2022-12-12T11:46:15.910Z,27.07
2022-12-12T11:48:52.516Z,23.17
2022-12-12T11:51:45.987Z,25.13
2022-12-12T11:54:32.233Z,26.00
2022-12-12T11:57:07.069Z,28.63
2022-12-12T11:59:55.015Z,29.33
2022-12-12T12:02:46.696Z,26.03
2022-12-12T12:06:14.102Z,24.63
2022-12-12T12:08:48.736Z,23.77
2022-12-12T12:11:44.785Z,28.40
2022-12-12T12:14:25.413Z,20.80
2022-12-12T12:17:40.541Z,25.83
2022-12-12T12:20:32.146Z,28.90
2022-12-12T12:23:24.143Z,24.70
2022-12-12T12:26:09.115Z,24.27
2022-12-12T12:29:14.712Z,22.93
2022-12-12T12:32:28.715Z,22.67
2022-12-12T12:35:31.637Z,24.23
2022-12-12T12:38:39.066Z,23.53
2022-12-12T12:41:37.327Z,23.80
2022-12-12T12:44:23.370Z,22.03
2022-12-12T12:47:07.684Z,24.20
2022-12-12T12:49:42.371Z,22.23
2022-12-12T12:52:39.497Z,24.90
2022-12-12T12:55:19.449Z,26.97
2022-12-12T12:57:50.501Z,22.20
2022-12-12T13:00:23.456Z,24.77
2022-12-12T13:03:17.720Z,25.60
2022-12-12T13:05:59.858Z,27.60
2022-12-12T13:08:43.490Z,27.80
2022-12-12T13:11:34.291Z,25.70
2022-12-12T13:14:17.178Z,26.47
2022-12-12T13:16:45.543Z,27.03
2022-12-12T13:19:31.718Z,24.27
2022-12-12T13:22:33.261Z,23.30
2022-12-12T13:25:43.534Z,23.80
2022-12-12T13:28:18.057Z,24.33
2022-12-12T13:31:23.519Z,20.00
2022-12-12T13:34:05.740Z,23.60
2022-12-12T13:36:37.970Z,21.90
2022-12-12T13:39:09.463Z,24.37
2022-12-12T13:42:07.141Z,29.13
2022-12-12T13:44:42.070Z,21.13
2022-12-12T13:47:12.366Z,23.03
2022-12-12T13:50:04.667Z,24.07
2022-12-12T13:52:41.125Z,23.57
2022-12-12T13:55:15.932Z,21.03
2022-12-12T13:58:06.959Z,30.90
2022-12-12T14:00:38.659Z,31.80
2022-12-12T14:03:11.904Z,20.13
2022-12-12T14:05:47.432Z,21.87
2022-12-12T14:08:14.756Z,20.80
2022-12-12T14:10:45.595Z,25.70
2022-12-12T14:13:21.958Z,23.70
2022-12-12T14:15:57.679Z,22.90
2022-12-12T14:18:40.027Z,22.80
2022-12-12T14:21:13.243Z,17.33
2022-12-12T14:23:52.791Z,20.77
2022-12-12T14:26:29.185Z,18.43
2022-12-12T14:29:18.494Z,18.00
2022-12-12T14:31:58.024Z,16.67
2022-12-12T14:35:08.819Z,15.30
2022-12-12T14:38:09.346Z,17.33
2022-12-12T14:40:49.699Z,17.87
2022-12-12T14:43:26.258Z,17.60
2022-12-12T14:46:01.629Z,16.03
2022-12-12T14:48:33.251Z,18.80
2022-12-12T14:51:06.326Z,17.07
2022-12-12T14:53:39.182Z,22.70
2022-12-12T14:56:18.914Z,19.00
2022-12-12T14:58:58.141Z,17.97
2022-12-12T15:01:54.158Z,17.30
2022-12-12T15:04:25.648Z,15.80
2022-12-12T15:07:04.985Z,22.90
2022-12-12T15:09:39.585Z,16.27
2022-12-12T15:12:16.754Z,18.10
2022-12-12T15:14:46.940Z,15.83
2022-12-12T15:17:22.004Z,19.60
2022-12-12T15:19:53.823Z,20.13
2022-12-12T15:22:30.994Z,18.60
2022-12-12T15:25:01.785Z,19.30
2022-12-12T15:27:41.982Z,21.13
2022-12-12T15:30:37.042Z,20.50
2022-12-12T15:33:08.651Z,25.57
2022-12-12T15:35:35.828Z,22.00
2022-12-12T15:38:10.923Z,25.17
2022-12-12T15:40:39.700Z,28.87
2022-12-12T15:43:17.221Z,27.83
2022-12-12T15:45:55.403Z,25.23
2022-12-12T15:48:30.142Z,29.70
2022-12-12T15:51:06.321Z,23.50
2022-12-12T15:53:39.055Z,32.77
2022-12-12T15:56:19.686Z,26.80
2022-12-12T15:58:53.903Z,29.07
2022-12-12T16:01:28.385Z,24.10
2022-12-12T16:04:03.644Z,29.20
2022-12-12T16:06:44.658Z,27.60
2022-12-12T16:09:12.310Z,26.67
2022-12-12T16:11:50.778Z,28.83
2022-12-12T16:14:42.837Z,32.40
2022-12-12T16:17:16.168Z,33.07
2022-12-12T16:20:03.683Z,28.30
2022-12-12T16:22:43.329Z,30.60
2022-12-12T16:25:18.172Z,29.37
2022-12-12T16:27:50.687Z,24.53
2022-12-12T16:30:18.638Z,27.10
2022-12-12T16:32:46.176Z,28.30
2022-12-12T16:35:19.132Z,27.37
2022-12-12T16:37:46.958Z,26.63
2022-12-12T16:40:18.026Z,27.77
2022-12-12T16:43:07.838Z,27.63
2022-12-12T16:45:38.737Z,27.70
2022-12-12T16:48:22.183Z,35.20
2022-12-12T16:50:52.619Z,25.77
2022-12-12T16:53:20.158Z,28.60
2022-12-12T16:55:50.559Z,27.63
2022-12-12T16:58:21.265Z,28.30
2022-12-12T17:00:51.875Z,26.77
2022-12-12T17:03:20.706Z,32.60
2022-12-12T17:05:49.281Z,31.93
2022-12-12T17:08:18.288Z,28.43
2022-12-12T17:10:48.478Z,25.90
2022-12-12T17:13:19.964Z,30.53
2022-12-12T17:15:47.546Z,29.03
2022-12-12T17:18:15.011Z,29.93
2022-12-12T17:20:43.193Z,25.23
2022-12-12T17:23:28.378Z,24.60
2022-12-12T17:26:02.497Z,25.47
2022-12-12T17:28:32.609Z,20.80
2022-12-12T17:30:59.964Z,26.60
2022-12-12T17:33:27.418Z,23.20
2022-12-12T17:36:13.490Z,22.80
2022-12-12T17:38:40.770Z,26.17
2022-12-12T17:41:09.036Z,22.93
2022-12-12T17:43:37.560Z,21.07
2022-12-12T17:46:14.678Z,23.57
2022-12-12T17:48:46.855Z,23.57
2022-12-12T17:51:18.950Z,23.07
2022-12-12T17:53:46.186Z,25.80
2022-12-12T17:56:16.769Z,26.30
2022-12-12T17:58:46.598Z,25.47
2022-12-12T18:01:24.148Z,27.30
2022-12-12T18:03:53.043Z,27.70
2022-12-12T18:06:22.086Z,31.47
2022-12-12T18:08:50.461Z,32.40
2022-12-12T18:11:25.556Z,32.33
2022-12-12T18:13:57.945Z,33.17
2022-12-12T18:16:28.139Z,32.77
2022-12-12T18:18:56.668Z,31.03
2022-12-12T18:21:59.718Z,32.27
2022-12-12T18:24:17.870Z,30.80
2022-12-12T18:26:45.314Z,29.40
2022-12-12T18:29:13.867Z,28.13
2022-12-12T18:31:41.232Z,26.83
2022-12-12T18:34:08.778Z,27.97
2022-12-12T18:36:35.968Z,26.27
2022-12-12T18:39:05.396Z,36.80
2022-12-12T18:41:33.674Z,23.93
2022-12-12T18:44:12.754Z,28.13
2022-12-12T18:46:43.232Z,28.07
2022-12-12T18:49:15.832Z,32.67
2022-12-12T18:51:45.495Z,28.80
2022-12-12T18:54:15.951Z,28.27
2022-12-12T18:56:45.898Z,32.03
2022-12-12T18:59:14.272Z,28.90
2022-12-12T19:01:41.629Z,30.03
2022-12-12T19:04:12.577Z,28.27
2022-12-12T19:06:43.517Z,33.10
2022-12-12T19:09:15.646Z,31.83
2022-12-12T19:11:43.138Z,32.63
2022-12-12T19:14:13.165Z,34.37
2022-12-12T19:16:41.238Z,30.43
2022-12-12T19:19:12.353Z,32.03
2022-12-12T19:21:44.380Z,28.80
2022-12-12T19:24:15.137Z,29.27
2022-12-12T19:26:46.346Z,35.87
2022-12-12T19:29:22.869Z,29.10
2022-12-12T19:31:58.564Z,33.07
2022-12-12T19:34:27.130Z,30.87
2022-12-12T19:36:54.990Z,25.90
2022-12-12T19:39:22.168Z,30.20
2022-12-12T19:41:50.002Z,29.50
2022-12-12T19:44:17.335Z,31.10
2022-12-12T19:46:47.829Z,30.50
2022-12-12T19:49:16.847Z,34.50
2022-12-12T19:51:48.120Z,29.33
2022-12-12T19:54:18.572Z,29.37
2022-12-12T19:56:47.493Z,31.73
2022-12-12T19:59:17.927Z,30.10
2022-12-12T20:01:48.440Z,33.87
2022-12-12T20:04:18.677Z,33.63
2022-12-12T20:06:52.495Z,34.70
2022-12-12T20:09:30.923Z,32.43
2022-12-12T20:12:05.513Z,41.10
2022-12-12T20:14:35.819Z,34.10
2022-12-12T20:17:22.502Z,32.93
2022-12-12T20:19:49.755Z,27.90
2022-12-12T20:22:17.042Z,31.43
2022-12-12T20:24:45.967Z,26.70
2022-12-12T20:27:15.480Z,25.80
2022-12-12T20:29:43.005Z,25.80
2022-12-12T20:32:13.561Z,29.30
2022-12-12T20:34:41.404Z,25.83
2022-12-12T20:37:10.193Z,26.80
2022-12-12T20:39:38.968Z,22.40
2022-12-12T20:42:06.499Z,23.23
2022-12-12T20:44:33.795Z,23.93
2022-12-12T20:47:01.659Z,24.00
2022-12-12T20:49:30.569Z,34.60
2022-12-12T20:51:59.283Z,25.60
2022-12-12T20:57:11.608Z,25.90
2022-12-12T20:59:40.778Z,26.50
2022-12-12T21:02:12.163Z,26.67
2022-12-12T21:04:39.594Z,27.97
2022-12-12T21:07:07.197Z,25.70
2022-12-12T21:09:35.067Z,26.47
2022-12-12T21:12:02.381Z,29.07
2022-12-12T21:14:30.941Z,24.00
2022-12-12T21:16:59.604Z,30.33
2022-12-12T21:19:30.174Z,27.47
2022-12-12T21:21:57.800Z,23.63
2022-12-12T21:24:24.986Z,27.17
2022-12-12T21:26:52.248Z,25.00
2022-12-12T21:29:19.498Z,25.87
2022-12-12T21:31:51.937Z,24.77
2022-12-12T21:34:23.756Z,31.73
2022-12-12T21:36:55.996Z,28.20
2022-12-12T21:39:26.936Z,30.80
2022-12-12T21:41:55.720Z,27.10
2022-12-12T21:44:23.640Z,25.60
2022-12-12T21:46:50.908Z,30.33
2022-12-12T21:49:28.252Z,31.13
2022-12-12T21:51:58.084Z,27.47
2022-12-12T21:54:29.025Z,29.60
2022-12-12T21:57:00.960Z,29.97
2022-12-12T21:59:28.941Z,26.80
2022-12-12T22:02:00.925Z,25.53
2022-12-12T22:04:28.408Z,27.40
2022-12-12T22:06:57.365Z,23.13
2022-12-12T22:09:25.119Z,23.30
2022-12-12T22:12:04.358Z,22.60
2022-12-12T22:14:34.934Z,26.13
2022-12-12T22:17:03.751Z,23.20
2022-12-12T22:19:31.105Z,26.87
2022-12-12T22:21:58.230Z,23.53
2022-12-12T22:24:26.368Z,27.83
2022-12-12T22:26:53.639Z,25.67
2022-12-12T22:29:20.977Z,22.43
2022-12-12T22:31:50.243Z,21.83
2022-12-12T22:34:21.703Z,21.60
2022-12-12T22:36:48.882Z,21.30
2022-12-12T22:39:20.209Z,20.37
2022-12-12T22:41:47.531Z,20.07
2022-12-12T22:44:17.185Z,20.80
2022-12-12T22:46:46.577Z,19.57
2022-12-12T22:49:16.750Z,15.70
2022-12-12T22:51:44.878Z,22.33
2022-12-12T22:54:12.396Z,22.43
2022-12-12T22:56:40.858Z,20.30
2022-12-12T22:59:11.387Z,20.30
2022-12-12T23:01:38.500Z,18.17
2022-12-12T23:04:06.319Z,22.63
2022-12-12T23:06:36.081Z,18.30
2022-12-12T23:09:14.418Z,17.10
2022-12-12T23:11:42.350Z,19.83
2022-12-12T23:14:14.842Z,19.30
2022-12-12T23:16:43.199Z,17.10
2022-12-12T23:19:13.163Z,18.57
2022-12-12T23:21:40.424Z,17.50
2022-12-12T23:24:08.087Z,19.27
2022-12-12T23:26:37.175Z,20.20
2022-12-12T23:29:08.175Z,15.47
2022-12-12T23:31:37.793Z,17.50
2022-12-12T23:34:09.797Z,21.43
2022-12-12T23:36:38.384Z,18.03
2022-12-12T23:39:07.844Z,19.30
2022-12-12T23:41:36.761Z,18.00
2022-12-12T23:44:05.512Z,12.17
2022-12-12T23:46:34.349Z,15.63
2022-12-12T23:49:09.333Z,15.47
2022-12-12T23:51:49.324Z,14.70
2022-12-12T23:54:20.541Z,14.10
2022-12-12T23:56:49.546Z,16.93
2022-12-12T23:59:18.877Z,15.10
